Time;durP1;ratioP1;P1;durP2;ratioP2;P2;SDS_P1;SDS_P2;PMS_P1;PMS_P2;Temp;Humidity;BMP_temperature;BMP_pressure;BME280_temperature;BME280_humidity;BME280_pressure;Samples;Min_cycle;Max_cycle;Signal;HPM_P1;HPM_P2
2022/11/23 00:00:13;;;;;;;1.13;0.85;;;;;;;11.83;100.00;97272.97;7395040;19;20463;-58
2022/11/23 00:02:40;;;;;;;0.73;0.50;;;;;;;11.83;100.00;97262.56;7398593;19;20017;-58
2022/11/23 00:05:07;;;;;;;2.92;0.52;;;;;;;11.75;100.00;97266.59;7395948;19;20010;-58
2022/11/23 00:07:33;;;;;;;1.77;1.38;;;;;;;11.55;100.00;97262.50;7398668;19;20367;-58
2022/11/23 00:09:59;;;;;;;3.63;1.13;;;;;;;11.51;100.00;97258.56;7397702;19;20015;-58
2022/11/23 00:12:25;;;;;;;4.63;1.00;;;;;;;11.62;100.00;97258.28;7396200;19;20014;-58
2022/11/23 00:14:52;;;;;;;6.63;1.45;;;;;;;11.56;100.00;97246.53;7394559;19;20017;-58
2022/11/23 00:17:18;;;;;;;1.98;0.65;;;;;;;11.37;100.00;97255.84;7393970;19;20531;-58
2022/11/23 00:19:44;;;;;;;1.30;1.20;;;;;;;11.27;100.00;97256.84;7395003;19;20015;-59
2022/11/23 00:22:10;;;;;;;0.80;0.55;;;;;;;11.46;100.00;97246.25;7397324;19;20014;-58
2022/11/23 00:24:36;;;;;;;0.55;0.55;;;;;;;11.54;100.00;97244.28;7396070;19;20070;-58
2022/11/23 00:27:02;;;;;;;0.52;0.40;;;;;;;11.51;100.00;97250.94;7394486;19;20014;-58
2022/11/23 00:29:28;;;;;;;0.95;0.95;;;;;;;11.27;100.00;97245.72;7393913;19;20003;-58
2022/11/23 00:31:54;;;;;;;2.55;1.77;;;;;;;11.44;100.00;97243.25;7394894;19;20038;-59
2022/11/23 00:34:20;;;;;;;2.47;0.77;;;;;;;11.63;100.00;97241.00;7393168;19;20017;-58
2022/11/23 00:36:46;;;;;;;0.50;0.45;;;;;;;11.69;100.00;97236.06;7395387;19;20015;-58
2022/11/23 00:39:13;;;;;;;3.67;1.08;;;;;;;11.76;99.79;97235.38;7395151;19;20007;-58
2022/11/23 00:41:40;;;;;;;3.22;0.50;;;;;;;11.80;100.00;97235.75;7399178;19;20040;-58
2022/11/23 00:44:07;;;;;;;1.65;0.70;;;;;;;12.02;99.18;97235.16;7394697;19;20037;-58
2022/11/23 00:46:33;;;;;;;0.73;0.70;;;;;;;12.28;99.55;97231.41;7390955;19;20023;-59
2022/11/23 00:49:00;;;;;;;2.25;0.63;;;;;;;12.59;99.28;97235.06;7393377;19;20006;-58
2022/11/23 00:51:30;;;;;;;1.65;0.43;;;;;;;12.75;99.57;97226.22;7393465;19;20095;-59
2022/11/23 00:53:58;;;;;;;3.60;0.57;;;;;;;12.94;99.61;97223.09;7393976;19;20029;-58
2022/11/23 00:56:25;;;;;;;0.20;0.13;;;;;;;13.14;99.78;97216.63;7393529;19;20044;-58
2022/11/23 00:58:53;;;;;;;1.30;0.52;;;;;;;13.35;99.55;97210.88;7393610;19;20007;-58
2022/11/23 01:01:24;;;;;;;0.93;0.93;;;;;;;13.45;99.97;97212.53;7394174;19;20597;-58
2022/11/23 01:03:53;;;;;;;4.60;0.80;;;;;;;13.69;99.60;97222.41;7392929;19;20034;-58
2022/11/23 01:06:22;;;;;;;3.15;1.23;;;;;;;13.81;99.68;97214.41;7392935;19;20006;-58
2022/11/23 01:09:01;;;;;;;0.70;0.38;;;;;;;13.94;99.65;97211.38;7398859;19;20025;-58
2022/11/23 01:11:29;;;;;;;4.38;2.20;;;;;;;9.85;100.00;97212.88;7395169;19;20475;-58
2022/11/23 01:13:56;;;;;;;1.00;0.60;;;;;;;8.01;100.00;97210.69;7393604;19;20661;-58
2022/11/23 01:16:29;;;;;;;1.17;1.08;;;;;;;7.52;100.00;97198.91;7393553;19;20034;-58
2022/11/23 01:18:58;;;;;;;9.18;1.30;;;;;;;8.01;100.00;97194.06;7391689;19;20018;-58
2022/11/23 01:21:26;;;;;;;4.40;1.55;;;;;;;8.07;100.00;97187.19;7393170;19;20011;-58
2022/11/23 01:23:52;;;;;;;1.30;0.70;;;;;;;8.50;100.00;97181.59;7392425;19;20364;-58
2022/11/23 01:26:19;;;;;;;1.85;0.85;;;;;;;8.49;100.00;97182.84;7390172;19;20022;-58
2022/11/23 01:28:45;;;;;;;1.98;1.70;;;;;;;11.12;100.00;97173.16;7392464;19;20046;-58
2022/11/23 01:31:14;;;;;;;0.40;0.30;;;;;;;13.26;100.00;97166.69;7393059;19;20014;-58
2022/11/23 01:33:44;;;;;;;0.20;0.20;;;;;;;13.81;100.00;97162.00;7391085;19;20011;-59
2022/11/23 01:36:16;;;;;;;0.57;0.57;;;;;;;14.00;100.00;97158.75;7391108;19;20711;-58
2022/11/23 01:38:44;;;;;;;4.57;0.32;;;;;;;13.99;100.00;97157.28;7390839;19;20010;-58
2022/11/23 01:41:14;;;;;;;1.65;0.65;;;;;;;14.10;100.00;97145.66;7396150;19;20014;-58
2022/11/23 01:43:40;;;;;;;7.93;0.63;;;;;;;14.41;100.00;97149.88;7389877;19;20021;-58
2022/11/23 01:46:07;;;;;;;0.35;0.35;;;;;;;14.57;100.00;97147.75;7391266;19;20016;-58
2022/11/23 01:48:42;;;;;;;0.30;0.30;;;;;;;14.52;100.00;97145.91;7390405;19;20455;-59
2022/11/23 01:51:15;;;;;;;4.00;0.57;;;;;;;14.54;100.00;97138.41;7392708;19;20011;-58
2022/11/23 01:53:45;;;;;;;0.75;0.60;;;;;;;14.17;100.00;97139.31;7390882;19;20010;-59
2022/11/23 01:56:18;;;;;;;1.73;1.00;;;;;;;14.34;100.00;97131.03;7392524;19;20021;-58
2022/11/23 01:58:49;;;;;;;0.25;0.25;;;;;;;14.16;100.00;97121.03;7390367;19;20021;-59
2022/11/23 02:01:15;;;;;;;1.15;1.08;;;;;;;14.38;100.00;97120.19;7392775;19;20036;-59
2022/11/23 02:03:43;;;;;;;3.05;0.52;;;;;;;14.55;100.00;97114.72;7389836;19;20459;-59
2022/11/23 02:06:15;;;;;;;2.42;1.67;;;;;;;14.67;100.00;97129.75;7390265;19;20463;-59
2022/11/23 02:08:41;;;;;;;1.60;1.35;;;;;;;14.67;100.00;97124.16;7396078;19;20025;-59
2022/11/23 02:11:09;;;;;;;2.15;0.88;;;;;;;14.56;100.00;97107.03;7392192;19;20015;-59
2022/11/23 02:16:48;;;;;;;0.40;0.38;;;;;;;14.72;100.00;97109.19;7392972;19;20011;-52
2022/11/23 02:19:28;;;;;;;1.05;0.70;;;;;;;14.71;100.00;97104.88;7391998;19;20011;-52
2022/11/23 02:21:59;;;;;;;1.27;0.95;;;;;;;14.79;100.00;97099.25;7393343;19;20018;-53
2022/11/23 02:24:38;;;;;;;4.43;1.58;;;;;;;14.89;100.00;97100.84;7389670;19;20010;-52
2022/11/23 02:27:08;;;;;;;2.05;0.95;;;;;;;14.78;100.00;97095.69;7387840;19;20017;-52
2022/11/23 02:29:34;;;;;;;8.50;1.02;;;;;;;14.72;100.00;97086.78;7389376;19;20010;-52
2022/11/23 02:32:00;;;;;;;1.60;0.85;;;;;;;14.77;100.00;97076.66;7388660;19;20022;-52
2022/11/23 02:34:26;;;;;;;2.20;0.77;;;;;;;14.74;100.00;97078.53;7389835;19;20027;-52
2022/11/23 02:36:54;;;;;;;1.75;1.52;;;;;;;14.74;100.00;97072.94;7389643;19;20011;-52
2022/11/23 02:39:37;;;;;;;1.85;1.35;;;;;;;14.67;100.00;97072.97;7390796;19;20021;-52
2022/11/23 02:42:04;;;;;;;3.15;1.15;;;;;;;14.80;100.00;97065.03;7391894;19;20010;-52
2022/11/23 02:45:08;;;;;;;1.20;0.80;;;;;;;14.71;100.00;97073.31;7390761;19;20006;-52
2022/11/23 02:47:36;;;;;;;3.17;0.75;;;;;;;14.84;100.00;97065.38;7386801;19;20025;-52
2022/11/23 02:50:02;;;;;;;0.60;0.60;;;;;;;14.75;100.00;97068.09;7389836;19;20359;-52
2022/11/23 02:52:28;;;;;;;1.50;1.10;;;;;;;14.89;100.00;97067.22;7391427;19;20507;-52
2022/11/23 02:54:56;;;;;;;13.88;1.40;;;;;;;14.80;100.00;97055.88;7389037;19;20046;-52
2022/11/23 02:57:22;;;;;;;1.35;0.52;;;;;;;14.55;100.00;97047.50;7385731;19;20018;-52
2022/11/23 02:59:49;;;;;;;0.82;0.82;;;;;;;14.23;100.00;97041.84;7387991;19;20018;-52
2022/11/23 03:02:15;;;;;;;1.10;0.68;;;;;;;14.47;100.00;97043.25;7393583;19;20010;-52
2022/11/23 03:04:41;;;;;;;1.35;0.98;;;;;;;14.47;100.00;97038.38;7387925;19;20075;-53
2022/11/23 03:07:07;;;;;;;1.27;0.95;;;;;;;14.51;100.00;97038.00;7391629;19;20014;-52
2022/11/23 03:09:33;;;;;;;0.63;0.55;;;;;;;14.49;100.00;97035.75;7389215;19;20007;-52
2022/11/23 03:12:00;;;;;;;1.85;0.82;;;;;;;14.50;100.00;97037.25;7388999;19;20048;-52
2022/11/23 03:14:28;;;;;;;1.15;0.80;;;;;;;14.43;100.00;97040.84;7384211;19;20016;-52
2022/11/23 03:16:58;;;;;;;1.83;0.98;;;;;;;14.30;100.00;97024.31;7387816;19;20360;-52
2022/11/23 03:19:25;;;;;;;0.95;0.95;;;;;;;14.31;100.00;97039.81;7388224;19;20007;-53
2022/11/23 03:21:52;;;;;;;0.98;0.30;;;;;;;14.34;100.00;97041.44;7391381;19;20336;-52
2022/11/23 03:24:19;;;;;;;0.65;0.57;;;;;;;14.39;100.00;97035.66;7388469;19;20030;-52
2022/11/23 03:26:46;;;;;;;1.15;1.05;;;;;;;14.34;100.00;97035.84;7387596;19;20011;-52
2022/11/23 03:29:17;;;;;;;1.80;1.02;;;;;;;14.32;100.00;97025.22;7387398;19;20022;-52
2022/11/23 03:31:44;;;;;;;0.52;0.52;;;;;;;14.37;100.00;97015.13;7388859;19;20024;-52
2022/11/23 03:34:13;;;;;;;0.57;0.32;;;;;;;14.31;100.00;97001.34;7387493;19;20088;-52
2022/11/23 03:36:40;;;;;;;3.00;1.83;;;;;;;14.41;100.00;96993.81;7387605;19;20011;-52
2022/11/23 03:39:06;;;;;;;1.58;1.30;;;;;;;14.43;100.00;96987.66;7387544;19;20019;-52
2022/11/23 03:41:54;;;;;;;3.78;0.80;;;;;;;14.32;100.00;96988.09;7389914;19;20125;-53
2022/11/23 03:44:23;;;;;;;4.20;1.20;;;;;;;14.49;100.00;96990.94;7386752;19;20010;-52
2022/11/23 03:46:49;;;;;;;1.65;0.63;;;;;;;14.51;100.00;96996.72;7386285;19;20098;-52
2022/11/23 03:49:16;;;;;;;1.00;0.88;;;;;;;14.59;100.00;96991.81;7385564;19;20022;-52
2022/11/23 03:51:43;;;;;;;12.80;1.77;;;;;;;14.63;100.00;97000.56;7386548;19;20115;-52
2022/11/23 03:54:09;;;;;;;3.53;0.68;;;;;;;14.84;100.00;96998.13;7386985;19;20010;-52
2022/11/23 03:56:37;;;;;;;2.40;0.70;;;;;;;14.96;100.00;96987.22;7386821;19;20032;-52
2022/11/23 03:59:04;;;;;;;4.93;1.20;;;;;;;15.05;100.00;96967.66;7387077;19;20015;-52
2022/11/23 04:01:30;;;;;;;1.85;1.75;;;;;;;14.84;100.00;96946.97;7388731;19;20014;-52
2022/11/23 04:04:01;;;;;;;2.80;0.85;;;;;;;14.81;100.00;96932.03;7387086;19;20034;-53
2022/11/23 04:06:50;;;;;;;12.48;1.15;;;;;;;14.77;100.00;96937.31;7386528;19;20340;-53
2022/11/23 04:09:30;;;;;;;4.07;1.42;;;;;;;14.73;100.00;96936.97;7393230;19;20033;-52
2022/11/23 04:12:02;;;;;;;3.13;1.50;;;;;;;14.67;100.00;96924.53;7397222;19;20015;-52
2022/11/23 04:14:29;;;;;;;6.82;1.83;;;;;;;14.55;100.00;96899.06;7394115;19;20454;-53
2022/11/23 04:16:55;;;;;;;4.57;1.10;;;;;;;14.78;100.00;96902.38;7394063;19;20070;-52
2022/11/23 04:19:22;;;;;;;2.22;0.55;;;;;;;14.82;100.00;96916.72;7393796;19;20007;-53
2022/11/23 04:21:48;;;;;;;2.45;0.93;;;;;;;14.77;100.00;96920.50;7398346;19;20019;-52
2022/11/23 04:24:14;;;;;;;4.18;1.38;;;;;;;14.77;100.00;96914.91;7394200;19;20015;-52
2022/11/23 04:26:42;;;;;;;2.17;1.27;;;;;;;14.70;100.00;96904.53;7393101;19;20018;-53
2022/11/23 04:29:09;;;;;;;0.70;0.70;;;;;;;14.70;100.00;96898.19;7393665;19;20455;-53
2022/11/23 04:31:40;;;;;;;1.88;0.70;;;;;;;14.60;100.00;96905.72;7396203;19;20018;-53
2022/11/23 04:34:17;;;;;;;5.60;2.72;;;;;;;14.57;100.00;96890.09;7392906;19;20014;-53
2022/11/23 04:36:44;;;;;;;1.90;1.58;;;;;;;14.42;100.00;96885.38;7393963;19;20022;-53
2022/11/23 04:39:12;;;;;;;5.28;1.83;;;;;;;14.44;100.00;96877.88;7393269;19;20608;-53
2022/11/23 04:42:00;;;;;;;7.53;0.82;;;;;;;14.49;100.00;96864.94;7397187;19;20022;-53
2022/11/23 04:44:26;;;;;;;1.30;0.75;;;;;;;14.53;100.00;96854.06;7394729;19;20014;-53
2022/11/23 04:46:59;;;;;;;1.15;0.95;;;;;;;14.49;100.00;96853.75;7393932;19;20101;-52
2022/11/23 04:49:26;;;;;;;1.58;0.60;;;;;;;14.61;100.00;96840.75;7394529;19;20039;-53
2022/11/23 04:51:52;;;;;;;23.73;1.35;;;;;;;14.73;100.00;96836.13;7394947;19;20010;-53
2022/11/23 04:54:21;;;;;;;2.40;0.45;;;;;;;14.83;100.00;96819.41;7393701;19;20019;-53
2022/11/23 04:56:53;;;;;;;2.47;0.93;;;;;;;14.76;100.00;96818.19;7392406;19;20435;-53
2022/11/23 04:59:21;;;;;;;9.85;0.98;;;;;;;14.71;100.00;96805.16;7392842;19;20010;-52
2022/11/23 05:01:47;;;;;;;10.60;0.98;;;;;;;14.78;100.00;96801.53;7396158;19;20022;-53
2022/11/23 05:04:33;;;;;;;2.78;0.77;;;;;;;14.89;100.00;96797.47;7391941;19;20018;-53
2022/11/23 05:07:00;;;;;;;1.45;1.35;;;;;;;14.88;100.00;96793.19;7392958;19;20013;-53
2022/11/23 05:09:26;;;;;;;3.05;1.13;;;;;;;14.80;100.00;96784.88;7392574;19;20048;-53
2022/11/23 05:12:21;;;;;;;0.57;0.57;;;;;;;14.90;100.00;96771.66;7390120;19;20029;-53
2022/11/23 05:14:47;;;;;;;1.48;0.20;;;;;;;15.00;100.00;96775.28;7392354;19;20015;-52
2022/11/23 05:17:19;;;;;;;0.22;0.22;;;;;;;15.00;100.00;96786.50;7392120;19;20014;-53
2022/11/23 05:19:47;;;;;;;2.92;1.35;;;;;;;14.91;100.00;96784.38;7391320;19;20022;-52
2022/11/23 05:22:13;;;;;;;1.13;0.28;;;;;;;14.86;100.00;96771.34;7394741;19;20011;-53
2022/11/23 05:24:41;;;;;;;0.10;0.00;;;;;;;14.79;100.00;96765.84;7393258;19;20070;-53
2022/11/23 05:27:10;;;;;;;2.92;2.17;;;;;;;14.84;100.00;96762.03;7391691;19;20070;-53
2022/11/23 05:29:37;;;;;;;3.20;1.25;;;;;;;15.02;100.00;96741.81;7391849;19;20031;-53
2022/11/23 05:32:05;;;;;;;0.50;0.50;;;;;;;12.32;100.00;96735.09;7392617;19;20017;-53
2022/11/23 05:34:32;;;;;;;0.80;0.80;;;;;;;14.43;100.00;96741.25;7391386;19;20667;-53
2022/11/23 05:36:59;;;;;;;2.85;1.10;;;;;;;14.66;100.00;96746.59;7392205;19;20372;-53
2022/11/23 05:39:25;;;;;;;4.70;1.30;;;;;;;14.74;100.00;96739.56;7390039;19;20088;-53
2022/11/23 05:41:52;;;;;;;4.25;1.75;;;;;;;14.54;100.00;96734.41;7394123;19;20006;-53
2022/11/23 05:44:32;;;;;;;4.10;1.35;;;;;;;14.73;100.00;96732.47;7391058;19;20473;-53
2022/11/23 05:46:59;;;;;;;1.83;0.68;;;;;;;14.96;100.00;96729.41;7391092;19;20042;-53
2022/11/23 05:49:28;;;;;;;0.35;0.35;;;;;;;15.03;100.00;96731.34;7390855;19;20017;-53
2022/11/23 05:51:54;;;;;;;9.07;0.75;;;;;;;15.07;100.00;96729.59;7392052;19;20014;-53
2022/11/23 05:54:22;;;;;;;1.80;0.65;;;;;;;15.07;100.00;96723.97;7390706;19;20035;-53
2022/11/23 05:57:09;;;;;;;1.35;0.95;;;;;;;15.09;100.00;96717.81;7390147;19;20021;-53
2022/11/23 05:59:38;;;;;;;0.77;0.77;;;;;;;15.24;100.00;96714.03;7393275;19;20022;-53
2022/11/23 06:02:06;;;;;;;3.05;1.25;;;;;;;15.42;100.00;96713.38;7393440;19;20007;-52
2022/11/23 06:04:35;;;;;;;0.95;0.32;;;;;;;15.50;100.00;96707.69;7390583;19;20006;-53
2022/11/23 06:07:02;;;;;;;1.42;0.65;;;;;;;15.40;100.00;96692.88;7391592;19;20023;-53
2022/11/23 06:09:47;;;;;;;2.20;1.27;;;;;;;15.38;100.00;96695.50;7392731;19;20014;-52
2022/11/23 06:12:13;;;;;;;2.40;1.05;;;;;;;15.39;100.00;96691.38;7391387;19;20014;-52
2022/11/23 06:14:39;;;;;;;1.00;0.32;;;;;;;15.49;100.00;96680.97;7389110;19;20027;-53
2022/11/23 06:17:06;;;;;;;0.63;0.63;;;;;;;15.64;100.00;96689.88;7389610;19;20011;-53
2022/11/23 06:19:42;;;;;;;2.40;0.98;;;;;;;15.37;100.00;96682.81;7390558;19;20070;-53
2022/11/23 06:22:10;;;;;;;2.20;0.90;;;;;;;15.30;100.00;96684.41;7393243;19;20015;-53
2022/11/23 06:24:44;;;;;;;1.55;0.50;;;;;;;15.29;100.00;96677.31;7390820;19;20427;-54
2022/11/23 06:27:29;;;;;;;0.57;0.40;;;;;;;15.06;100.00;96677.69;7389492;19;20014;-53
2022/11/23 06:29:55;;;;;;;2.15;1.27;;;;;;;15.41;100.00;96666.28;7388997;19;20070;-54
2022/11/23 06:32:24;;;;;;;3.00;0.65;;;;;;;15.63;100.00;96659.59;7389614;19;20351;-54
2022/11/23 06:34:50;;;;;;;0.20;0.20;;;;;;;15.70;100.00;96653.13;7392001;19;20010;-53
2022/11/23 06:37:16;;;;;;;5.22;0.60;;;;;;;15.38;100.00;96648.56;7389697;19;20011;-53
2022/11/23 06:39:48;;;;;;;5.80;0.77;;;;;;;14.98;100.00;96643.44;7390527;19;20439;-53
2022/11/23 06:42:15;;;;;;;1.65;0.30;;;;;;;14.56;100.00;96651.28;7393102;19;20616;-53
2022/11/23 06:44:42;;;;;;;2.58;1.33;;;;;;;14.62;100.00;96643.38;7388820;19;20463;-53
2022/11/23 06:47:08;;;;;;;0.77;0.40;;;;;;;14.53;100.00;96632.84;7390589;19;20014;-53
2022/11/23 06:49:34;;;;;;;0.40;0.35;;;;;;;14.76;100.00;96619.28;7389004;19;20017;-53
2022/11/23 06:52:13;;;;;;;3.45;0.85;;;;;;;14.71;100.00;96619.53;7390708;19;20359;-53
2022/11/23 06:54:40;;;;;;;1.45;1.00;;;;;;;14.62;100.00;96609.75;7389495;19;20014;-53
2022/11/23 06:57:07;;;;;;;0.15;0.15;;;;;;;14.62;100.00;96601.38;7389534;19;20011;-60
2022/11/23 06:59:33;;;;;;;0.35;0.35;;;;;;;14.77;100.00;96589.94;7390592;19;20046;-60
2022/11/23 07:01:59;;;;;;;2.60;0.52;;;;;;;14.85;100.00;96587.03;7391550;19;20017;-60
2022/11/23 07:04:28;;;;;;;0.50;0.50;;;;;;;14.85;100.00;96589.84;7389285;19;20015;-53
2022/11/23 07:06:54;;;;;;;4.15;1.23;;;;;;;14.95;100.00;96571.72;7388766;19;20078;-53
2022/11/23 07:09:32;;;;;;;0.35;0.35;;;;;;;15.04;100.00;96573.84;7387704;19;20014;-52
2022/11/23 07:12:20;;;;;;;0.93;0.50;;;;;;;15.22;100.00;96571.66;7390136;19;20364;-53
2022/11/23 07:14:46;;;;;;;0.20;0.20;;;;;;;15.28;100.00;96562.97;7387682;19;20040;-59
2022/11/23 07:17:12;;;;;;;0.25;0.25;;;;;;;15.36;100.00;96586.72;7387861;19;20010;-59
2022/11/23 07:19:38;;;;;;;1.35;0.70;;;;;;;15.43;100.00;96585.13;7387904;19;20084;-59
2022/11/23 07:22:05;;;;;;;0.32;0.32;;;;;;;16.31;100.00;96574.81;7390866;19;20107;-59
2022/11/23 07:24:32;;;;;;;0.40;0.38;;;;;;;16.46;100.00;96571.66;7386681;19;20073;-60
2022/11/23 07:26:58;;;;;;;0.40;0.40;;;;;;;15.89;100.00;96563.34;7387428;19;20014;-59
2022/11/23 07:29:24;;;;;;;0.10;0.10;;;;;;;15.89;100.00;96552.13;7388348;19;20038;-60
2022/11/23 07:31:51;;;;;;;6.90;0.88;;;;;;;15.80;100.00;96561.28;7389111;19;20022;-59
2022/11/23 07:34:19;;;;;;;0.20;0.20;;;;;;;15.91;100.00;96557.88;7388051;19;20039;-60
2022/11/23 07:36:45;;;;;;;0.43;0.38;;;;;;;15.79;100.00;96552.13;7390324;19;20021;-60
2022/11/23 07:39:11;;;;;;;0.52;0.50;;;;;;;15.59;100.00;96547.09;7387439;19;20015;-60
2022/11/23 07:41:37;;;;;;;0.10;0.10;;;;;;;15.76;100.00;96549.75;7393144;19;20482;-60
2022/11/23 07:44:09;;;;;;;0.20;0.20;;;;;;;15.79;100.00;96546.50;7394351;19;20010;-59
2022/11/23 07:46:36;;;;;;;0.20;0.10;;;;;;;15.85;100.00;96566.56;7394694;19;20062;-60
2022/11/23 07:49:02;;;;;;;0.80;0.47;;;;;;;15.92;100.00;96556.53;7396383;19;20019;-60
2022/11/23 07:51:29;;;;;;;0.47;0.30;;;;;;;15.99;100.00;96547.22;7395392;19;20013;-60
2022/11/23 07:53:55;;;;;;;0.10;0.10;;;;;;;15.99;100.00;96550.03;7394521;19;20633;-61
2022/11/23 07:56:22;;;;;;;9.13;0.68;;;;;;;16.12;100.00;96546.78;7395500;19;20015;-60
2022/11/23 07:58:48;;;;;;;0.10;0.10;;;;;;;16.16;100.00;96549.88;7396300;19;20037;-59
2022/11/23 08:01:17;;;;;;;0.30;0.30;;;;;;;16.21;100.00;96548.81;7395485;19;20688;-60
2022/11/23 08:03:47;;;;;;;0.20;0.20;;;;;;;16.30;100.00;96550.13;7393878;19;20010;-60
2022/11/23 08:06:14;;;;;;;0.40;0.20;;;;;;;16.50;100.00;96568.47;7394007;19;20019;-61
2022/11/23 08:08:41;;;;;;;0.73;0.47;;;;;;;16.59;100.00;96571.22;7398691;19;20484;-53
2022/11/23 08:11:08;;;;;;;0.38;0.38;;;;;;;16.64;100.00;96567.38;7398454;19;20007;-53
2022/11/23 08:13:36;;;;;;;1.02;0.47;;;;;;;16.99;100.00;96564.13;7394116;19;20023;-57
2022/11/23 08:16:08;;;;;;;0.25;0.25;;;;;;;16.95;100.00;96558.97;7396743;19;20017;-61
2022/11/23 08:18:35;;;;;;;0.28;0.20;;;;;;;16.99;100.00;96572.56;7394258;19;20015;-60
2022/11/23 08:21:01;;;;;;;2.13;0.90;;;;;;;16.95;100.00;96570.22;7391657;19;20019;-61
2022/11/23 08:23:28;;;;;;;1.13;0.38;;;;;;;16.92;100.00;96570.66;7392932;19;20316;-61
2022/11/23 08:25:54;;;;;;;0.57;0.10;;;;;;;17.01;100.00;96564.25;7392220;19;20030;-60
2022/11/23 08:28:21;;;;;;;0.60;0.60;;;;;;;16.98;100.00;96554.22;7392389;19;20010;-59
2022/11/23 08:30:47;;;;;;;0.10;0.05;;;;;;;16.54;100.00;96549.81;7392664;19;20011;-59
2022/11/23 08:33:14;;;;;;;0.30;0.30;;;;;;;16.93;100.00;96541.97;7393408;19;20021;-59
2022/11/23 08:35:41;;;;;;;0.85;0.57;;;;;;;16.70;100.00;96541.03;7394738;19;20066;-59
2022/11/23 08:38:09;;;;;;;0.50;0.40;;;;;;;16.78;100.00;96542.34;7394325;19;20015;-60
2022/11/23 08:40:36;;;;;;;0.20;0.20;;;;;;;16.96;100.00;96549.19;7397252;19;20018;-60
2022/11/23 08:43:02;;;;;;;0.63;0.17;;;;;;;16.98;100.00;96557.03;7394812;19;20011;-59
2022/11/23 08:45:29;;;;;;;0.10;0.10;;;;;;;16.95;100.00;96567.41;7394839;19;20027;-59
2022/11/23 08:48:02;;;;;;;1.85;0.20;;;;;;;17.06;100.00;96571.66;7393880;19;20011;-58
2022/11/23 08:50:29;;;;;;;2.58;0.30;;;;;;;17.13;100.00;96570.72;7395264;19;20021;-59
2022/11/23 08:52:56;;;;;;;0.68;0.17;;;;;;;17.09;100.00;96581.69;7391597;19;20010;-58
2022/11/23 08:55:24;;;;;;;0.20;0.13;;;;;;;17.39;100.00;96589.34;7392381;19;20010;-58
2022/11/23 08:57:54;;;;;;;0.32;0.30;;;;;;;17.57;100.00;96596.25;7394079;19;20010;-58
2022/11/23 09:00:20;;;;;;;0.15;0.15;;;;;;;17.33;100.00;96597.38;7394136;19;20100;-58
2022/11/23 09:02:46;;;;;;;0.10;0.10;;;;;;;17.17;100.00;96593.50;7394057;19;20052;-58
2022/11/23 09:05:12;;;;;;;0.95;0.50;;;;;;;17.42;100.00;96596.59;7394248;19;20014;-58
2022/11/23 09:07:39;;;;;;;0.35;0.10;;;;;;;17.22;100.00;96598.03;7396002;19;20022;-59
2022/11/23 09:10:05;;;;;;;2.33;0.52;;;;;;;17.17;100.00;96594.22;7394901;19;20011;-59
2022/11/23 09:12:32;;;;;;;1.20;0.43;;;;;;;17.09;100.00;96595.72;7396789;19;20480;-58
2022/11/23 09:14:58;;;;;;;0.35;0.20;;;;;;;16.93;100.00;96598.19;7392597;19;20506;-58
2022/11/23 09:17:24;;;;;;;1.00;0.22;;;;;;;17.09;100.00;96606.97;7390252;19;20355;-58
2022/11/23 09:19:50;;;;;;;0.20;0.20;;;;;;;17.04;100.00;96608.06;7393427;19;20066;-58
2022/11/23 09:22:17;;;;;;;1.00;0.80;;;;;;;17.02;100.00;96610.72;7394553;19;20018;-59
2022/11/23 09:24:43;;;;;;;0.68;0.40;;;;;;;17.13;100.00;96619.25;7391031;19;20014;-59
2022/11/23 09:27:09;;;;;;;0.65;0.30;;;;;;;17.19;100.00;96614.06;7393242;19;20025;-59
2022/11/23 09:29:35;;;;;;;3.03;0.35;;;;;;;17.13;100.00;96621.34;7393206;19;20015;-59
2022/11/23 09:32:02;;;;;;;0.20;0.10;;;;;;;17.12;100.00;96622.66;7393323;19;20034;-59
2022/11/23 09:34:28;;;;;;;0.57;0.30;;;;;;;17.00;100.00;96631.00;7390777;19;20013;-59
2022/11/23 09:36:56;;;;;;;0.10;0.10;;;;;;;17.09;100.00;96637.91;7391481;19;20019;-59
2022/11/23 09:39:22;;;;;;;0.13;0.10;;;;;;;17.15;100.00;96646.78;7391443;19;20407;-59
2022/11/23 09:41:54;;;;;;;0.20;0.20;;;;;;;17.19;100.00;96641.44;7394923;19;20452;-59
2022/11/23 09:44:57;;;;;;;1.65;0.35;;;;;;;17.53;100.00;96646.63;7390615;19;20018;-59
2022/11/23 09:47:38;;;;;;;0.90;0.52;;;;;;;18.00;100.00;96642.75;7392512;19;20009;-59
2022/11/23 09:50:10;;;;;;;;;;;;;;;18.18;100.00;96652.41;7392216;19;20014;-59
2022/11/23 09:52:44;;;;;;;1.08;0.60;;;;;;;18.16;100.00;96649.47;7394699;19;19923;-59
2022/11/23 09:55:23;;;;;;;1.35;0.85;;;;;;;18.44;100.00;96661.09;7391794;19;20033;-59
2022/11/23 09:57:56;;;;;;;0.20;0.20;;;;;;;18.49;100.00;96648.78;7392005;19;20015;-59
2022/11/23 10:00:22;;;;;;;0.17;0.17;;;;;;;18.66;100.00;96654.84;7390557;19;20023;-59
2022/11/23 10:02:49;;;;;;;6.13;0.50;;;;;;;18.83;100.00;96667.88;7391598;19;20017;-59
2022/11/23 10:05:19;;;;;;;0.75;0.57;;;;;;;19.16;100.00;96677.00;7388987;19;20367;-59
2022/11/23 10:08:09;;;;;;;4.30;0.80;;;;;;;19.46;100.00;96675.34;7391963;19;20033;-59
2022/11/23 10:10:40;;;;;;;1.65;0.32;;;;;;;19.46;100.00;96690.19;7394668;19;20235;-59
2022/11/23 10:13:09;;;;;;;0.82;0.50;;;;;;;19.56;100.00;96685.16;7391319;19;20011;-59
2022/11/23 10:15:51;;;;;;;9.60;0.47;;;;;;;19.67;100.00;96690.06;7391633;19;20011;-59
2022/11/23 10:18:56;;;;;;;0.20;0.20;;;;;;;19.67;100.00;96695.72;7391715;19;20010;-59
2022/11/23 10:21:59;;;;;;;0.10;0.03;;;;;;;19.63;100.00;96689.81;7393491;19;20014;-59
2022/11/23 10:24:34;;;;;;;0.95;0.45;;;;;;;19.65;100.00;96700.50;7391040;19;20021;-60
2022/11/23 10:27:01;;;;;;;0.20;0.20;;;;;;;19.76;100.00;96707.50;7390504;19;20054;-60
2022/11/23 10:29:35;;;;;;;1.00;0.30;;;;;;;19.88;100.00;96716.72;7390850;19;20454;-59
2022/11/23 10:32:06;;;;;;;0.10;0.10;;;;;;;19.85;100.00;96706.63;7392520;19;20050;-59
2022/11/23 10:34:47;;;;;;;0.10;0.10;;;;;;;19.85;100.00;96706.63;7391033;19;20030;-60
2022/11/23 10:37:15;;;;;;;11.07;0.35;;;;;;;19.72;100.00;96724.19;7391637;19;20018;-59
2022/11/23 10:39:42;;;;;;;0.10;0.10;;;;;;;19.73;100.00;96734.16;7390705;19;20056;-59
2022/11/23 10:42:30;;;;;;;0.73;0.32;;;;;;;19.30;100.00;96733.56;7394098;19;20499;-59
2022/11/23 10:44:58;;;;;;;0.30;0.30;;;;;;;19.37;100.00;96741.84;7389582;19;20011;-59
2022/11/23 10:47:59;;;;;;;0.10;0.00;;;;;;;19.52;100.00;96744.19;7388919;19;20696;-59
2022/11/23 10:50:34;;;;;;;0.10;0.10;;;;;;;19.43;100.00;96744.28;7389109;19;20477;-59
2022/11/23 10:53:18;;;;;;;0.00;0.00;;;;;;;19.37;100.00;96747.47;7386953;19;20022;-59
2022/11/23 10:55:56;;;;;;;0.10;0.00;;;;;;;19.32;100.00;96748.53;7390748;19;20006;-59
2022/11/23 10:58:30;;;;;;;0.10;0.10;;;;;;;19.34;100.00;96759.25;7389122;19;20021;-59
2022/11/23 11:01:00;;;;;;;0.10;0.10;;;;;;;19.30;100.00;96758.97;7390873;19;20039;-59
2022/11/23 11:03:32;;;;;;;1.75;0.25;;;;;;;19.21;100.00;96754.91;7387205;19;20070;-59
2022/11/23 11:05:59;;;;;;;0.10;0.10;;;;;;;19.22;100.00;96759.22;7388750;19;20018;-59
2022/11/23 11:08:51;;;;;;;0.75;0.20;;;;;;;19.03;100.00;96750.94;7392325;19;20083;-59
2022/11/23 11:11:29;;;;;;;0.20;0.20;;;;;;;18.87;100.00;96767.56;7390624;19;20014;-59
2022/11/23 11:14:14;;;;;;;0.30;0.30;;;;;;;18.92;100.00;96771.38;7388401;19;20018;-59
2022/11/23 11:16:52;;;;;;;0.10;0.00;;;;;;;18.90;100.00;96768.44;7387089;19;20014;-59
2022/11/23 11:19:33;;;;;;;1.85;0.40;;;;;;;18.25;100.00;96768.31;7387583;19;20022;-60
2022/11/23 11:22:03;;;;;;;0.10;0.00;;;;;;;18.95;100.00;96775.78;7392156;19;20329;-60
2022/11/23 11:24:37;;;;;;;0.20;0.20;;;;;;;18.73;100.00;96780.00;7389876;19;20478;-60
2022/11/23 11:27:23;;;;;;;0.08;0.00;;;;;;;18.65;100.00;96776.63;7389893;19;20015;-59
2022/11/23 11:29:52;;;;;;;0.38;0.13;;;;;;;18.73;100.00;96769.44;7389945;19;20007;-59
2022/11/23 11:32:36;;;;;;;0.10;0.00;;;;;;;18.36;100.00;96767.63;7391942;19;20010;-59
2022/11/23 11:35:11;;;;;;;0.10;0.10;;;;;;;18.53;100.00;96776.59;7389204;19;20022;-60
2022/11/23 11:37:43;;;;;;;1.10;0.22;;;;;;;18.46;100.00;96771.16;7388325;19;20027;-59
2022/11/23 11:40:30;;;;;;;0.10;0.10;;;;;;;18.46;100.00;96785.22;7390633;19;20042;-60
2022/11/23 11:43:00;;;;;;;0.10;0.00;;;;;;;18.51;100.00;96790.56;7388971;19;20019;-60